Terminal Aerodrome Forecast
Issued by NWS

Home | Current Version | Previous Version | Text Only | Print | Product List | Glossary On
Versions: 1 2 3 4 5 6 7 8 9 10 11 12 13 14 15 16 17 18 19 20 21 22 23 24 25 26
000
FTUS41 KPBZ 301204 CCA
TAFAGC
TAF COR
KAGC 301204Z 3012/3112 VRB03KT 2SM -SHRA SCT040 BKN060
     FM301400 VRB03KT P6SM VCSH BKN040
     FM301800 21005KT P6SM VCTS BKN040CB
     FM302200 14003KT P6SM VCSH BKN080
     FM310300 18003KT P6SM BKN200=

USA.gov is the U.S. government's official web portal to all federal, state and local government web resources and services.